createdAt,value
2023-04-09T00:02:14.574Z,10.60
2023-04-09T00:04:41.290Z,10.87
2023-04-09T00:07:07.913Z,10.70
2023-04-09T00:09:34.561Z,11.13
2023-04-09T00:12:02.226Z,10.43
2023-04-09T00:14:28.949Z,11.17
2023-04-09T00:16:56.111Z,11.40
2023-04-09T00:19:22.689Z,10.57
2023-04-09T00:21:49.357Z,10.87
2023-04-09T00:24:16.057Z,11.10
2023-04-09T00:26:42.590Z,11.87
2023-04-09T00:29:09.164Z,11.37
2023-04-09T00:31:35.706Z,12.00
2023-04-09T00:34:02.347Z,12.80
2023-04-09T00:36:28.923Z,13.23
2023-04-09T00:38:55.582Z,12.53
2023-04-09T00:41:22.128Z,11.10
2023-04-09T00:43:48.736Z,11.43
2023-04-09T00:46:16.375Z,11.90
2023-04-09T00:48:43.493Z,12.50
2023-04-09T00:51:10.336Z,12.33
2023-04-09T00:53:36.923Z,13.30
2023-04-09T00:56:04.981Z,12.77
2023-04-09T00:58:31.723Z,13.27
2023-04-09T01:00:58.360Z,13.13
2023-04-09T01:03:25.512Z,13.00
2023-04-09T01:06:30.794Z,13.23
2023-04-09T01:09:11.668Z,12.63
2023-04-09T01:11:46.538Z,12.80
2023-04-09T01:14:29.953Z,13.20
2023-04-09T01:17:04.341Z,13.73
2023-04-09T01:19:48.836Z,12.33
2023-04-09T01:22:48.796Z,13.23
2023-04-09T01:26:02.280Z,13.83
2023-04-09T01:28:43.417Z,13.63
2023-04-09T01:31:14.893Z,13.13
2023-04-09T01:33:42.499Z,12.57
2023-04-09T01:36:09.796Z,13.37
2023-04-09T01:38:39.773Z,13.80
2023-04-09T01:41:07.762Z,13.30
2023-04-09T01:43:34.847Z,13.70
2023-04-09T01:46:03.660Z,13.50
2023-04-09T01:48:32.979Z,13.17
2023-04-09T01:50:59.888Z,14.13
2023-04-09T01:53:28.940Z,14.80
2023-04-09T01:55:56.808Z,15.23
2023-04-09T01:58:24.986Z,14.70
2023-04-09T02:00:54.721Z,15.53
2023-04-09T02:03:26.322Z,15.23
2023-04-09T02:06:13.418Z,14.23
2023-04-09T02:08:44.653Z,14.60
2023-04-09T02:11:11.504Z,13.37
2023-04-09T02:13:41.234Z,14.20
2023-04-09T02:16:09.521Z,15.23
2023-04-09T02:18:36.552Z,14.20
2023-04-09T02:21:04.630Z,14.20
2023-04-09T02:23:33.221Z,14.57
2023-04-09T02:25:59.779Z,15.03
2023-04-09T02:28:26.297Z,15.37
2023-04-09T02:30:52.994Z,14.93
2023-04-09T02:33:19.634Z,15.07
2023-04-09T02:35:46.190Z,15.57
2023-04-09T02:38:14.004Z,15.07
2023-04-09T02:40:41.503Z,15.00
2023-04-09T02:43:09.606Z,15.07
2023-04-09T02:45:36.717Z,15.70
2023-04-09T02:48:03.372Z,16.40
2023-04-09T02:50:29.970Z,14.90
2023-04-09T02:52:56.574Z,15.13
2023-04-09T02:55:23.296Z,15.90
2023-04-09T02:57:49.815Z,16.17
2023-04-09T03:00:16.446Z,17.33
2023-04-09T03:02:43.286Z,15.30
2023-04-09T03:05:10.005Z,15.73
2023-04-09T03:07:36.659Z,15.33
2023-04-09T03:10:03.334Z,16.90
2023-04-09T03:12:29.966Z,14.73
2023-04-09T03:14:56.518Z,14.33
2023-04-09T03:17:25.825Z,14.37
2023-04-09T03:19:52.739Z,14.83
2023-04-09T03:22:19.311Z,13.53
2023-04-09T03:24:45.966Z,14.13
2023-04-09T03:27:12.611Z,14.10
2023-04-09T03:29:39.152Z,14.30
2023-04-09T03:32:06.047Z,13.13
2023-04-09T03:34:32.641Z,15.10
2023-04-09T03:36:59.179Z,13.60
2023-04-09T03:39:26.023Z,13.77
2023-04-09T03:41:53.116Z,14.40
2023-04-09T03:44:19.724Z,14.57
2023-04-09T03:46:46.454Z,14.83
2023-04-09T03:49:13.089Z,15.43
2023-04-09T03:51:39.697Z,14.67
2023-04-09T03:54:06.295Z,15.43
2023-04-09T03:56:32.843Z,13.97
2023-04-09T03:58:59.387Z,13.83
2023-04-09T04:01:26.011Z,14.13
2023-04-09T04:03:52.849Z,14.00
2023-04-09T04:06:19.521Z,13.73
2023-04-09T04:08:46.170Z,14.33
2023-04-09T04:11:12.717Z,14.97
2023-04-09T04:13:39.287Z,15.00
2023-04-09T04:16:09.622Z,15.20
2023-04-09T04:18:37.246Z,15.30
2023-04-09T04:21:04.064Z,14.47
2023-04-09T04:23:30.734Z,13.63
2023-04-09T04:25:58.123Z,13.13
2023-04-09T04:28:24.709Z,12.97
2023-04-09T04:30:51.250Z,13.73
2023-04-09T04:33:17.817Z,13.20
2023-04-09T04:35:44.460Z,13.70
2023-04-09T04:38:11.937Z,13.67
2023-04-09T04:40:39.086Z,12.90
2023-04-09T04:43:05.632Z,14.53
2023-04-09T04:45:32.228Z,13.13
2023-04-09T04:47:58.841Z,12.80
2023-04-09T04:50:25.723Z,13.37
2023-04-09T04:52:52.469Z,13.63
2023-04-09T04:55:19.124Z,15.07
2023-04-09T04:57:45.703Z,13.33
2023-04-09T05:00:12.923Z,14.93
2023-04-09T05:02:39.521Z,14.40
2023-04-09T05:05:06.670Z,13.20
2023-04-09T05:07:33.981Z,12.97
2023-04-09T05:10:00.526Z,13.47
2023-04-09T05:12:27.054Z,13.63
2023-04-09T05:14:53.628Z,13.53
2023-04-09T05:17:20.231Z,14.10
2023-04-09T05:19:51.806Z,14.63
2023-04-09T05:22:18.468Z,15.20
2023-04-09T05:24:44.996Z,14.73
2023-04-09T05:27:11.936Z,14.00
2023-04-09T05:29:38.480Z,15.87
2023-04-09T05:32:05.586Z,14.77
2023-04-09T05:34:32.105Z,15.80
2023-04-09T05:36:58.660Z,14.87
2023-04-09T05:39:25.361Z,14.47
2023-04-09T05:41:52.524Z,15.57
2023-04-09T05:44:19.459Z,15.97
2023-04-09T05:46:46.145Z,14.27
2023-04-09T05:49:12.687Z,16.03
2023-04-09T05:51:39.218Z,14.47
2023-04-09T05:54:05.825Z,14.83
2023-04-09T05:56:32.319Z,15.83
2023-04-09T05:58:58.891Z,15.63
2023-04-09T06:01:25.423Z,15.93
2023-04-09T06:03:53.828Z,14.97
2023-04-09T06:06:21.931Z,14.83
2023-04-09T06:08:48.479Z,15.30
2023-04-09T06:11:15.606Z,14.47
2023-04-09T06:13:42.225Z,13.93
2023-04-09T06:16:10.226Z,15.10
2023-04-09T06:18:37.303Z,13.97
2023-04-09T06:21:07.819Z,15.00
2023-04-09T06:23:36.395Z,15.53
2023-04-09T06:26:03.183Z,14.50
2023-04-09T06:28:29.928Z,14.43
2023-04-09T06:30:56.580Z,15.03
2023-04-09T06:33:23.368Z,13.73
2023-04-09T06:35:50.102Z,14.20
2023-04-09T06:38:17.751Z,15.37
2023-04-09T06:40:44.867Z,15.47
2023-04-09T06:43:11.501Z,15.00
2023-04-09T06:45:40.833Z,15.00
2023-04-09T06:48:07.717Z,14.77
2023-04-09T06:50:34.305Z,13.67
2023-04-09T06:53:01.061Z,14.47
2023-04-09T06:55:27.700Z,13.63
2023-04-09T06:57:54.369Z,14.20
2023-04-09T07:00:23.026Z,13.83
2023-04-09T07:02:50.723Z,13.67
2023-04-09T07:05:17.525Z,12.73
2023-04-09T07:07:44.642Z,13.60
2023-04-09T07:10:11.518Z,14.30
2023-04-09T07:12:38.090Z,12.33
2023-04-09T07:15:06.730Z,12.93
2023-04-09T07:17:34.409Z,11.37
2023-04-09T07:20:01.545Z,12.37
2023-04-09T07:22:29.767Z,11.83
2023-04-09T07:24:56.672Z,11.07
2023-04-09T07:27:25.345Z,11.83
2023-04-09T07:29:54.390Z,10.67
2023-04-09T07:32:21.078Z,11.87
2023-04-09T07:34:47.732Z,11.77
2023-04-09T07:37:14.280Z,11.17
2023-04-09T07:39:42.659Z,10.67
2023-04-09T07:42:09.319Z,11.07
2023-04-09T07:44:36.723Z,9.57
2023-04-09T07:47:04.559Z,11.33
2023-04-09T07:49:31.390Z,10.73
2023-04-09T07:52:01.450Z,11.70
2023-04-09T07:54:28.574Z,11.53
2023-04-09T07:56:55.183Z,11.17
2023-04-09T07:59:21.811Z,11.27
2023-04-09T08:01:48.543Z,10.67
2023-04-09T08:04:15.705Z,11.63
2023-04-09T08:06:42.467Z,11.10
2023-04-09T08:09:08.941Z,10.33
2023-04-09T08:11:35.502Z,10.90
2023-04-09T08:14:03.727Z,10.43
2023-04-09T08:16:30.557Z,10.67
2023-04-09T08:18:57.754Z,11.17
2023-04-09T08:21:24.342Z,10.37
2023-04-09T08:23:51.235Z,12.00
2023-04-09T08:26:17.971Z,11.83
2023-04-09T08:28:44.597Z,11.50
2023-04-09T08:31:11.140Z,11.50
2023-04-09T08:33:37.733Z,10.87
2023-04-09T08:36:08.741Z,10.07
2023-04-09T08:38:35.268Z,10.47
2023-04-09T08:41:01.822Z,11.83
2023-04-09T08:43:42.351Z,11.50
2023-04-09T08:46:17.549Z,10.53
2023-04-09T08:48:48.521Z,11.63
2023-04-09T08:51:15.907Z,10.40
2023-04-09T08:53:46.566Z,12.10
2023-04-09T08:56:16.636Z,11.63
2023-04-09T08:58:47.221Z,12.63
2023-04-09T09:01:24.788Z,10.53
2023-04-09T09:04:00.707Z,11.33
2023-04-09T09:06:33.482Z,11.77
2023-04-09T09:09:05.676Z,12.67
2023-04-09T09:11:37.522Z,10.40
2023-04-09T09:14:06.342Z,10.93
2023-04-09T09:16:35.027Z,11.87
2023-04-09T09:19:02.933Z,10.67
2023-04-09T09:21:30.435Z,11.17
2023-04-09T09:23:57.810Z,12.03
2023-04-09T09:26:27.223Z,10.70
2023-04-09T09:28:54.526Z,9.27
2023-04-09T09:31:23.248Z,8.67
2023-04-09T09:33:51.207Z,10.03
2023-04-09T09:36:35.134Z,9.97
2023-04-09T09:39:10.343Z,10.20
2023-04-09T09:41:37.594Z,7.60
2023-04-09T09:44:07.155Z,9.23
2023-04-09T09:46:36.579Z,9.03
2023-04-09T09:49:03.333Z,9.63
2023-04-09T09:51:32.368Z,9.53
2023-04-09T09:54:00.060Z,10.73
2023-04-09T09:56:37.910Z,9.87
2023-04-09T09:59:07.708Z,10.87
2023-04-09T10:01:35.806Z,9.07
2023-04-09T10:04:05.797Z,9.20
2023-04-09T10:06:34.534Z,8.90
2023-04-09T10:09:04.864Z,9.37
2023-04-09T10:11:35.350Z,9.40
2023-04-09T10:14:02.771Z,9.60
2023-04-09T10:16:29.801Z,8.37
2023-04-09T10:18:58.095Z,8.47
2023-04-09T10:21:42.630Z,8.77
2023-04-09T10:24:09.859Z,8.60
2023-04-09T10:26:41.109Z,8.60
2023-04-09T10:29:15.535Z,7.73
2023-04-09T10:32:05.039Z,7.03
2023-04-09T10:34:36.244Z,8.47
2023-04-09T10:37:02.983Z,8.47
2023-04-09T10:39:33.593Z,8.57
2023-04-09T10:42:06.908Z,9.87
2023-04-09T10:44:35.775Z,7.43
2023-04-09T10:47:03.768Z,8.10
2023-04-09T10:49:39.788Z,8.33
2023-04-09T10:52:12.593Z,8.17
2023-04-09T10:54:46.326Z,8.50
2023-04-09T10:57:16.669Z,8.07
2023-04-09T10:59:47.796Z,8.13
2023-04-09T11:02:39.662Z,6.20
2023-04-09T11:05:30.865Z,7.33
2023-04-09T11:08:09.525Z,8.00
2023-04-09T11:10:38.482Z,7.47
2023-04-09T11:13:05.957Z,6.40
2023-04-09T11:15:35.765Z,7.80
2023-04-09T11:18:03.323Z,7.83
2023-04-09T11:20:31.210Z,7.20
2023-04-09T11:22:59.383Z,6.37
2023-04-09T11:25:36.162Z,5.40
2023-04-09T11:28:04.714Z,9.63
2023-04-09T11:30:31.750Z,6.37
2023-04-09T11:32:58.373Z,5.90
2023-04-09T11:35:25.081Z,4.30
2023-04-09T11:37:52.464Z,5.87
2023-04-09T11:40:24.935Z,5.90
2023-04-09T11:42:53.281Z,6.53
2023-04-09T11:45:22.985Z,6.47
2023-04-09T11:47:49.876Z,5.30
2023-04-09T11:50:17.021Z,6.70
2023-04-09T11:52:45.812Z,5.77
2023-04-09T11:55:22.390Z,5.70
2023-04-09T11:57:48.932Z,5.00
2023-04-09T12:00:17.469Z,4.67
2023-04-09T12:02:46.768Z,4.43
2023-04-09T12:05:22.884Z,5.40
2023-04-09T12:07:56.360Z,4.90
2023-04-09T12:10:30.689Z,4.37
2023-04-09T12:13:08.215Z,4.50
2023-04-09T12:15:41.888Z,5.17
2023-04-09T12:18:09.961Z,4.27
2023-04-09T12:20:39.699Z,4.03
2023-04-09T12:23:07.862Z,4.20
2023-04-09T12:25:39.179Z,4.43
2023-04-09T12:28:06.992Z,4.03
2023-04-09T12:30:34.759Z,4.63
2023-04-09T12:33:02.714Z,5.13
2023-04-09T12:35:29.466Z,4.70
2023-04-09T12:37:56.215Z,4.50
2023-04-09T12:40:23.084Z,4.00
2023-04-09T12:42:49.713Z,3.63
2023-04-09T12:45:18.004Z,4.50
2023-04-09T12:47:45.374Z,3.93
2023-04-09T12:50:13.780Z,4.13
2023-04-09T12:52:40.785Z,3.70
2023-04-09T12:55:08.032Z,4.80
2023-04-09T12:57:34.950Z,4.37
2023-04-09T13:00:01.564Z,4.57
2023-04-09T13:02:28.439Z,4.03
2023-04-09T13:04:55.074Z,3.90
2023-04-09T13:07:22.774Z,4.13
2023-04-09T13:09:52.640Z,4.17
2023-04-09T13:12:21.563Z,3.73
2023-04-09T13:14:49.116Z,4.63
2023-04-09T13:17:16.173Z,4.57
2023-04-09T13:19:43.080Z,4.30
2023-04-09T13:22:10.519Z,4.83
2023-04-09T13:24:40.890Z,4.27
2023-04-09T13:27:09.719Z,4.17
2023-04-09T13:29:36.677Z,3.70
2023-04-09T13:32:07.218Z,4.13
2023-04-09T13:34:35.038Z,4.63
2023-04-09T13:37:03.014Z,3.97
2023-04-09T13:39:29.908Z,3.70
2023-04-09T13:41:56.783Z,3.53
2023-04-09T13:44:25.125Z,3.63
2023-04-09T13:46:51.846Z,3.50
2023-04-09T13:49:18.491Z,3.97
2023-04-09T13:51:45.348Z,3.97
2023-04-09T13:54:11.985Z,3.60
2023-04-09T13:56:39.504Z,3.97
2023-04-09T13:59:06.489Z,4.00
2023-04-09T14:01:33.920Z,4.67
2023-04-09T14:04:00.777Z,3.77
2023-04-09T14:06:27.438Z,3.37
2023-04-09T14:08:54.556Z,3.50
2023-04-09T14:11:21.306Z,3.53
2023-04-09T14:13:48.532Z,3.73
2023-04-09T14:16:15.188Z,4.17
2023-04-09T14:18:41.771Z,3.90
2023-04-09T14:21:10.214Z,4.43
2023-04-09T14:23:37.390Z,3.60
2023-04-09T14:26:04.910Z,4.07
2023-04-09T14:28:32.167Z,4.00
2023-04-09T14:30:59.592Z,4.20
2023-04-09T14:33:26.982Z,3.80
2023-04-09T14:35:53.691Z,3.87
2023-04-09T14:38:20.475Z,3.80
2023-04-09T14:40:46.992Z,4.00
2023-04-09T14:43:13.866Z,3.80
2023-04-09T14:45:40.444Z,3.10
2023-04-09T14:48:07.208Z,3.70
2023-04-09T14:50:34.094Z,3.50
2023-04-09T14:53:01.137Z,3.50
2023-04-09T14:55:28.347Z,3.90
2023-04-09T14:57:54.978Z,3.77
2023-04-09T15:00:21.726Z,4.30
2023-04-09T15:02:48.881Z,4.03
2023-04-09T15:05:16.120Z,3.70
2023-04-09T15:07:43.745Z,3.53
2023-04-09T15:10:10.940Z,3.33
2023-04-09T15:12:37.444Z,3.27
2023-04-09T15:15:08.781Z,3.40
2023-04-09T15:17:35.923Z,3.90
2023-04-09T15:20:02.658Z,3.87
2023-04-09T15:22:29.221Z,4.10
2023-04-09T15:24:55.983Z,3.73
2023-04-09T15:27:22.504Z,4.07
2023-04-09T15:29:49.207Z,4.97
2023-04-09T15:32:15.915Z,4.37
2023-04-09T15:34:42.457Z,4.33
2023-04-09T15:37:08.945Z,4.13
2023-04-09T15:39:35.533Z,3.67
2023-04-09T15:42:02.228Z,3.93
2023-04-09T15:44:29.121Z,3.83
2023-04-09T15:46:56.381Z,4.00
2023-04-09T15:49:23.121Z,3.90
2023-04-09T15:51:49.836Z,3.93
2023-04-09T15:54:16.571Z,3.70
2023-04-09T15:56:43.189Z,4.07
2023-04-09T15:59:09.867Z,4.67
2023-04-09T16:01:36.642Z,4.23
2023-04-09T16:04:04.784Z,4.30
2023-04-09T16:06:31.604Z,3.93
2023-04-09T16:08:58.234Z,4.10
2023-04-09T16:11:24.921Z,4.00
2023-04-09T16:13:52.403Z,4.20
2023-04-09T16:16:19.531Z,4.47
2023-04-09T16:18:46.181Z,3.80
2023-04-09T16:21:13.131Z,4.17
2023-04-09T16:23:39.969Z,19.70
2023-04-09T16:26:07.053Z,4.40
2023-04-09T16:28:33.882Z,4.37
2023-04-09T16:31:00.776Z,5.00
2023-04-09T16:33:27.658Z,4.90
2023-04-09T16:35:54.454Z,4.43
2023-04-09T16:38:21.082Z,4.40
2023-04-09T16:40:47.759Z,5.32
2023-04-09T16:43:14.428Z,4.73
2023-04-09T16:45:41.004Z,4.87
2023-04-09T16:48:12.302Z,4.70
2023-04-09T16:50:40.418Z,4.67
2023-04-09T16:53:08.714Z,4.83
2023-04-09T16:55:35.723Z,4.60
2023-04-09T16:58:02.418Z,4.70
2023-04-09T17:00:29.101Z,5.07
2023-04-09T17:02:57.914Z,5.20
2023-04-09T17:05:25.001Z,4.87
2023-04-09T17:07:52.816Z,4.83
2023-04-09T17:10:19.988Z,5.80
2023-04-09T17:12:47.386Z,4.33
2023-04-09T17:15:14.685Z,4.37
2023-04-09T17:17:41.472Z,4.77
2023-04-09T17:20:08.500Z,4.47
2023-04-09T17:22:35.726Z,4.73
2023-04-09T17:25:02.586Z,4.90
2023-04-09T17:27:29.251Z,5.33
2023-04-09T17:29:56.042Z,5.17
2023-04-09T17:32:22.631Z,4.60
2023-04-09T17:34:52.453Z,5.20
2023-04-09T17:37:19.148Z,5.20
2023-04-09T17:39:45.788Z,4.47
2023-04-09T17:42:12.341Z,4.90
2023-04-09T17:44:39.622Z,4.47
2023-04-09T17:47:07.512Z,4.37
2023-04-09T17:49:34.356Z,4.40
2023-04-09T17:52:01.260Z,4.00
2023-04-09T17:54:33.555Z,4.00
2023-04-09T17:57:01.445Z,4.00
2023-04-09T17:59:28.274Z,4.00
2023-04-09T18:01:55.309Z,4.00
2023-04-09T18:04:23.819Z,3.57
2023-04-09T18:06:50.781Z,4.37
2023-04-09T18:09:17.994Z,3.60
2023-04-09T18:11:45.106Z,4.90
2023-04-09T18:14:12.044Z,4.63
2023-04-09T18:16:39.545Z,4.23
2023-04-09T18:19:06.859Z,4.47
2023-04-09T18:21:36.467Z,4.73
2023-04-09T18:24:03.739Z,4.50
2023-04-09T18:26:30.829Z,4.97
2023-04-09T18:29:00.622Z,4.80
2023-04-09T18:31:27.980Z,4.70
2023-04-09T18:33:54.599Z,5.13
2023-04-09T18:36:21.412Z,5.10
2023-04-09T18:38:48.003Z,6.80
2023-04-09T18:41:22.476Z,8.37
2023-04-09T18:43:49.116Z,9.83
2023-04-09T18:46:15.709Z,12.27
2023-04-09T18:48:43.417Z,16.87
2023-04-09T18:51:11.249Z,32.23
2023-04-09T18:53:38.206Z,9.33
2023-04-09T18:56:05.050Z,13.37
2023-04-09T18:58:32.827Z,17.53
2023-04-09T19:01:00.921Z,7.33
2023-04-09T19:03:29.448Z,5.00
2023-04-09T19:05:57.582Z,9.67
2023-04-09T19:08:24.173Z,9.10
2023-04-09T19:10:51.019Z,8.23
2023-04-09T19:13:18.374Z,6.40
2023-04-09T19:15:45.105Z,6.73
2023-04-09T19:18:11.769Z,27.37
2023-04-09T19:20:38.517Z,13.63
2023-04-09T19:23:05.094Z,5.50
2023-04-09T19:25:33.040Z,6.00
2023-04-09T19:27:59.532Z,5.23
2023-04-09T19:30:26.276Z,5.03
2023-04-09T19:32:53.515Z,6.10
2023-04-09T19:35:20.699Z,8.10
2023-04-09T19:37:47.253Z,13.77
2023-04-09T19:40:16.962Z,6.47
2023-04-09T19:42:44.035Z,12.93
2023-04-09T19:45:11.105Z,9.50
2023-04-09T19:47:37.633Z,8.70
2023-04-09T19:50:04.417Z,9.30
2023-04-09T19:52:34.222Z,6.10
2023-04-09T19:55:01.832Z,24.80
2023-04-09T19:57:28.528Z,17.77
2023-04-09T19:59:55.565Z,13.17
2023-04-09T20:02:22.361Z,16.13
2023-04-09T20:04:49.219Z,12.90
2023-04-09T20:07:15.859Z,16.60
2023-04-09T20:09:42.553Z,23.53
2023-04-09T20:12:10.178Z,55.80
2023-04-09T20:14:38.257Z,40.20
2023-04-09T20:17:06.236Z,47.47
2023-04-09T20:19:32.812Z,25.90
2023-04-09T20:22:00.359Z,30.30
2023-04-09T20:24:28.269Z,30.43
2023-04-09T20:26:55.082Z,33.20
2023-04-09T20:29:21.751Z,46.03
2023-04-09T20:31:48.502Z,11.10
2023-04-09T20:34:15.372Z,33.03
2023-04-09T20:36:43.800Z,19.37
2023-04-09T20:39:13.260Z,38.57
2023-04-09T20:41:40.368Z,23.50
2023-04-09T20:44:07.250Z,18.07
2023-04-09T20:46:33.803Z,9.80
2023-04-09T20:49:01.585Z,12.37
2023-04-09T20:51:28.313Z,13.57
2023-04-09T20:53:54.904Z,15.47
2023-04-09T20:56:21.698Z,10.10
2023-04-09T20:58:48.294Z,6.47
2023-04-09T21:01:15.779Z,6.13
2023-04-09T21:03:42.944Z,9.60
2023-04-09T21:06:10.474Z,5.20
2023-04-09T21:08:38.468Z,4.87
2023-04-09T21:11:05.416Z,4.10
2023-04-09T21:13:40.360Z,4.23
2023-04-09T21:16:17.987Z,4.03
2023-04-09T21:18:45.020Z,4.13
2023-04-09T21:21:11.707Z,3.90
2023-04-09T21:23:38.422Z,3.97
2023-04-09T21:26:05.418Z,3.50
2023-04-09T21:28:32.049Z,3.83
2023-04-09T21:30:58.616Z,3.50
2023-04-09T21:33:26.347Z,3.83
2023-04-09T21:35:54.170Z,3.07
2023-04-09T21:38:20.731Z,3.30
2023-04-09T21:40:47.376Z,3.27
2023-04-09T21:43:14.526Z,3.27
2023-04-09T21:45:41.125Z,3.27
2023-04-09T21:48:09.289Z,4.43
2023-04-09T21:50:36.045Z,3.53
2023-04-09T21:53:03.288Z,2.93
2023-04-09T21:55:30.007Z,3.10
2023-04-09T21:57:56.707Z,3.50
2023-04-09T22:00:23.393Z,3.40
2023-04-09T22:02:50.109Z,2.77
2023-04-09T22:05:16.824Z,3.07
2023-04-09T22:07:44.571Z,3.80
2023-04-09T22:10:11.335Z,3.60
2023-04-09T22:12:37.946Z,3.43
2023-04-09T22:15:05.841Z,3.73
2023-04-09T22:17:32.473Z,3.30
2023-04-09T22:19:59.118Z,3.43
2023-04-09T22:22:25.621Z,3.10
2023-04-09T22:24:52.224Z,3.77
2023-04-09T22:27:18.820Z,3.40
2023-04-09T22:29:45.617Z,3.40
2023-04-09T22:32:12.777Z,3.20
2023-04-09T22:34:39.419Z,3.47
2023-04-09T22:37:06.331Z,3.40
2023-04-09T22:39:33.173Z,3.20
2023-04-09T22:41:59.716Z,3.63
2023-04-09T22:44:26.330Z,2.80
2023-04-09T22:46:53.083Z,3.60
2023-04-09T22:49:19.753Z,3.57
2023-04-09T22:51:46.439Z,3.50
2023-04-09T22:54:12.973Z,3.87
2023-04-09T22:56:39.769Z,3.83
2023-04-09T22:59:06.390Z,3.60
2023-04-09T23:01:33.120Z,3.53
2023-04-09T23:03:59.748Z,3.47
2023-04-09T23:06:26.276Z,3.73
2023-04-09T23:08:53.085Z,3.77
2023-04-09T23:11:19.968Z,3.53
2023-04-09T23:13:46.726Z,3.10
2023-04-09T23:16:13.604Z,3.90
2023-04-09T23:18:40.285Z,3.83
2023-04-09T23:21:10.674Z,3.53
2023-04-09T23:23:38.354Z,3.97
2023-04-09T23:26:05.921Z,3.60
2023-04-09T23:28:32.670Z,4.03
2023-04-09T23:30:59.330Z,3.67
2023-04-09T23:33:26.033Z,3.83
2023-04-09T23:35:52.677Z,3.90
2023-04-09T23:38:19.386Z,3.70
2023-04-09T23:40:47.360Z,4.10
2023-04-09T23:43:14.258Z,3.73
2023-04-09T23:45:41.198Z,4.07
2023-04-09T23:48:09.024Z,3.93
2023-04-09T23:50:42.203Z,4.00
2023-04-09T23:53:09.190Z,4.00
2023-04-09T23:55:41.160Z,3.80
2023-04-09T23:58:08.469Z,3.50
